Time;durP1;ratioP1;P1;durP2;ratioP2;P2;SDS_P1;SDS_P2;PMS_P1;PMS_P2;Temp;Humidity;BMP_temperature;BMP_pressure;BME280_temperature;BME280_humidity;BME280_pressure;Samples;Min_cycle;Max_cycle;Signal;HPM_P1;HPM_P2
2022/08/21 00:02:19;;;;;;;25.38;19.08;;;;;;;;;;5018786;28;20049;-93
2022/08/21 00:04:48;;;;;;;22.90;19.13;;;;;;;;;;5017371;28;20049;-93
2022/08/21 00:07:24;;;;;;;23.05;18.60;;;;;;;;;;5018254;28;20041;-93
2022/08/21 00:09:51;;;;;;;24.13;18.38;;;;;;;;;;5017593;28;20104;-94
2022/08/21 00:12:18;;;;;;;23.23;19.38;;;;;;;;;;5017901;28;20041;-94
2022/08/21 00:14:45;;;;;;;23.50;18.50;;;;;;;;;;5017743;28;20053;-94
2022/08/21 00:17:13;;;;;;;22.80;18.60;;;;;;;;;;5017430;28;20050;-95
2022/08/21 00:19:40;;;;;;;24.33;19.17;;;;;;;;;;5017369;28;20581;-95
2022/08/21 00:22:12;;;;;;;25.35;18.48;;;;;;;;;;5019106;28;20197;-95
2022/08/21 00:24:39;;;;;;;23.08;18.00;;;;;;;;;;5019458;28;20049;-93
2022/08/21 00:27:07;;;;;;;21.83;17.63;;;;;;;;;;5035080;28;20058;-96
2022/08/21 00:29:34;;;;;;;19.92;17.35;;;;;;;;;;5017462;28;20073;-95
2022/08/21 00:32:01;;;;;;;25.55;17.83;;;;;;;;;;5018285;28;20073;-95
2022/08/21 00:34:29;;;;;;;23.35;17.10;;;;;;;;;;5019019;28;20485;-95
2022/08/21 00:36:56;;;;;;;20.08;16.88;;;;;;;;;;5018017;28;20076;-96
2022/08/21 00:39:23;;;;;;;18.55;15.90;;;;;;;;;;5018080;28;20045;-95
2022/08/21 00:41:50;;;;;;;20.25;15.20;;;;;;;;;;5017815;28;20080;-94
2022/08/21 00:44:18;;;;;;;21.33;17.20;;;;;;;;;;5018337;28;20183;-95
2022/08/21 00:46:45;;;;;;;19.17;15.50;;;;;;;;;;5018030;28;20060;-95
2022/08/21 00:49:13;;;;;;;22.25;17.15;;;;;;;;;;5020015;28;20484;-95
2022/08/21 00:51:49;;;;;;;20.95;16.00;;;;;;;;;;5018995;28;20469;-94
2022/08/21 00:54:17;;;;;;;17.48;15.73;;;;;;;;;;5017904;28;20119;-95
2022/08/21 00:56:50;;;;;;;20.33;16.23;;;;;;;;;;5017480;28;20084;-94
2022/08/21 00:59:19;;;;;;;19.88;16.70;;;;;;;;;;5018372;28;20068;-94
2022/08/21 01:01:46;;;;;;;19.58;16.50;;;;;;;;;;5017825;28;20072;-96
2022/08/21 01:04:14;;;;;;;17.33;15.52;;;;;;;;;;5019636;28;20073;-93
2022/08/21 01:06:41;;;;;;;17.05;15.32;;;;;;;;;;5017793;28;20077;-94
2022/08/21 01:09:09;;;;;;;21.20;16.27;;;;;;;;;;5019791;28;20046;-95
2022/08/21 01:11:36;;;;;;;19.10;16.63;;;;;;;;;;5019621;28;20076;-95
2022/08/21 01:14:04;;;;;;;17.88;15.32;;;;;;;;;;5023461;28;20046;-94
2022/08/21 01:16:31;;;;;;;19.58;15.45;;;;;;;;;;5024044;28;20052;-95
2022/08/21 01:18:58;;;;;;;20.33;16.50;;;;;;;;;;5028160;28;20049;-95
2022/08/21 01:21:27;;;;;;;17.60;15.35;;;;;;;;;;5027804;28;20543;-94
2022/08/21 01:23:55;;;;;;;17.83;15.73;;;;;;;;;;5027938;28;20095;-94
2022/08/21 01:26:24;;;;;;;17.17;15.38;;;;;;;;;;5022206;28;20081;-95
2022/08/21 01:29:23;;;;;;;18.35;16.13;;;;;;;;;;5031602;28;20116;-94
2022/08/21 01:31:50;;;;;;;18.15;14.90;;;;;;;;;;5020732;28;20493;-96
2022/08/21 01:34:18;;;;;;;16.48;14.63;;;;;;;;;;5025264;28;20084;-95
2022/08/21 01:36:46;;;;;;;16.73;15.10;;;;;;;;;;5027384;28;20053;-95
2022/08/21 01:39:14;;;;;;;16.55;14.75;;;;;;;;;;5024383;28;20474;-96
2022/08/21 01:41:42;;;;;;;15.52;13.93;;;;;;;;;;5025690;28;20045;-95
2022/08/21 01:44:09;;;;;;;16.17;13.82;;;;;;;;;;5026039;28;20053;-94
2022/08/21 01:46:36;;;;;;;17.30;14.93;;;;;;;;;;5033257;28;20076;-95
2022/08/21 01:49:04;;;;;;;15.50;13.90;;;;;;;;;;5030101;28;20058;-96
2022/08/21 01:51:31;;;;;;;15.73;14.02;;;;;;;;;;5026677;28;20053;-95
2022/08/21 01:53:59;;;;;;;16.13;14.23;;;;;;;;;;5027454;28;20079;-95
2022/08/21 01:56:32;;;;;;;21.10;16.67;;;;;;;;;;5030016;28;20052;-95
2022/08/21 01:58:59;;;;;;;18.55;15.65;;;;;;;;;;5025142;28;20053;-95
2022/08/21 02:01:26;;;;;;;21.00;14.48;;;;;;;;;;5023388;28;20091;-95
2022/08/21 02:03:54;;;;;;;16.38;14.68;;;;;;;;;;5026989;28;20053;-95
2022/08/21 02:06:22;;;;;;;15.65;14.10;;;;;;;;;;5051287;28;20057;-94
2022/08/21 02:08:54;;;;;;;15.93;13.70;;;;;;;;;;5037510;28;20053;-95
2022/08/21 02:11:26;;;;;;;18.80;15.23;;;;;;;;;;5036232;28;20052;-95
2022/08/21 02:13:55;;;;;;;17.20;14.90;;;;;;;;;;5020073;28;20046;-96
2022/08/21 02:16:23;;;;;;;16.45;14.10;;;;;;;;;;5035203;28;20049;-94
2022/08/21 02:18:51;;;;;;;20.52;16.25;;;;;;;;;;5018612;28;20049;-94
2022/08/21 02:21:19;;;;;;;22.30;15.88;;;;;;;;;;5037875;28;20045;-96
2022/08/21 02:23:47;;;;;;;21.67;16.10;;;;;;;;;;5037183;28;20049;-95
2022/08/21 02:26:15;;;;;;;18.35;15.32;;;;;;;;;;5027276;28;20057;-95
2022/08/21 02:28:44;;;;;;;21.48;16.52;;;;;;;;;;5028084;28;20056;-95
2022/08/21 02:31:12;;;;;;;20.52;15.45;;;;;;;;;;5038584;28;20053;-95
2022/08/21 02:33:47;;;;;;;18.05;15.68;;;;;;;;;;5040433;28;20076;-95
2022/08/21 02:36:15;;;;;;;20.08;15.50;;;;;;;;;;5036666;28;20049;-96
2022/08/21 02:38:51;;;;;;;27.42;16.98;;;;;;;;;;5038757;28;20117;-94
2022/08/21 02:41:21;;;;;;;22.45;17.90;;;;;;;;;;5034969;28;20064;-96
2022/08/21 02:43:49;;;;;;;21.95;16.95;;;;;;;;;;5047420;28;20486;-95
2022/08/21 02:46:17;;;;;;;17.20;15.38;;;;;;;;;;5027751;28;20072;-95
2022/08/21 02:48:44;;;;;;;17.83;15.93;;;;;;;;;;5026217;28;20050;-94
2022/08/21 02:51:13;;;;;;;21.77;16.02;;;;;;;;;;5048028;22;20048;-81
2022/08/21 02:53:41;;;;;;;17.33;14.90;;;;;;;;;;5054514;28;20071;-81
2022/08/21 02:56:10;;;;;;;16.88;15.05;;;;;;;;;;5054390;28;20073;-82
2022/08/21 02:58:41;;;;;;;17.17;14.63;;;;;;;;;;5056755;28;20500;-82
2022/08/21 03:01:09;;;;;;;23.27;15.50;;;;;;;;;;5055348;28;20049;-83
2022/08/21 03:03:37;;;;;;;16.75;14.95;;;;;;;;;;5056593;28;20048;-82
2022/08/21 03:06:05;;;;;;;16.90;15.20;;;;;;;;;;5056018;28;20465;-83
2022/08/21 03:08:32;;;;;;;19.17;15.07;;;;;;;;;;5056374;28;20087;-83
2022/08/21 03:11:00;;;;;;;16.40;13.60;;;;;;;;;;5055033;28;20538;-82
2022/08/21 03:13:28;;;;;;;14.68;13.27;;;;;;;;;;5055674;28;20079;-83
2022/08/21 03:15:56;;;;;;;16.98;14.77;;;;;;;;;;5057859;28;20072;-83
2022/08/21 03:18:24;;;;;;;17.23;14.98;;;;;;;;;;5057830;28;20057;-83
2022/08/21 03:20:51;;;;;;;17.42;15.57;;;;;;;;;;5057286;28;20098;-83
2022/08/21 03:23:18;;;;;;;21.98;16.20;;;;;;;;;;5058242;28;20073;-83
2022/08/21 03:25:46;;;;;;;15.80;14.00;;;;;;;;;;5056942;28;20187;-83
2022/08/21 03:28:15;;;;;;;15.70;13.68;;;;;;;;;;5057589;28;20075;-83
2022/08/21 03:30:42;;;;;;;16.27;14.23;;;;;;;;;;5056658;28;20049;-82
2022/08/21 03:33:10;;;;;;;19.98;14.05;;;;;;;;;;5055951;28;20044;-83
2022/08/21 03:35:42;;;;;;;16.27;13.90;;;;;;;;;;5055774;28;20056;-83
2022/08/21 03:38:09;;;;;;;21.50;14.98;;;;;;;;;;5056755;28;20057;-83
2022/08/21 03:40:37;;;;;;;15.98;14.25;;;;;;;;;;5056382;28;20102;-83
2022/08/21 03:43:04;;;;;;;17.95;14.40;;;;;;;;;;5056085;28;20053;-81
2022/08/21 03:45:32;;;;;;;19.08;15.35;;;;;;;;;;5055189;28;20095;-83
2022/08/21 03:48:00;;;;;;;16.30;14.30;;;;;;;;;;5055165;28;20079;-83
2022/08/21 03:50:29;;;;;;;17.40;14.52;;;;;;;;;;5057268;28;20045;-83
2022/08/21 03:52:57;;;;;;;19.48;14.77;;;;;;;;;;5078651;28;20074;-83
2022/08/21 03:55:25;;;;;;;19.83;15.15;;;;;;;;;;5096245;28;20048;-83
2022/08/21 03:57:52;;;;;;;27.77;16.30;;;;;;;;;;5078073;28;20426;-83
2022/08/21 04:00:20;;;;;;;17.98;15.15;;;;;;;;;;5078387;28;20510;-83
2022/08/21 04:02:47;;;;;;;22.00;14.80;;;;;;;;;;5078190;28;20476;-83
2022/08/21 04:05:26;;;;;;;20.92;16.02;;;;;;;;;;5096209;28;20040;-83
2022/08/21 04:08:04;;;;;;;22.33;15.32;;;;;;;;;;5096828;28;20123;-83
2022/08/21 04:10:34;;;;;;;22.05;16.13;;;;;;;;;;5078497;28;20044;-83
2022/08/21 04:13:01;;;;;;;18.27;15.25;;;;;;;;;;5078522;28;20048;-81
2022/08/21 04:15:28;;;;;;;24.25;14.52;;;;;;;;;;5096777;28;20078;-83
2022/08/21 04:17:55;;;;;;;20.23;15.05;;;;;;;;;;5096988;28;20469;-83
2022/08/21 04:20:23;;;;;;;22.70;14.68;;;;;;;;;;5096819;28;20048;-83
2022/08/21 04:22:50;;;;;;;17.83;14.52;;;;;;;;;;5078855;28;20047;-83
2022/08/21 04:25:18;;;;;;;22.73;15.23;;;;;;;;;;5096136;28;20480;-83
2022/08/21 04:27:45;;;;;;;17.77;14.40;;;;;;;;;;5096618;28;20565;-83
2022/08/21 04:30:14;;;;;;;16.20;14.45;;;;;;;;;;5080466;28;20048;-82
2022/08/21 04:32:46;;;;;;;16.08;14.23;;;;;;;;;;5083126;28;20495;-83
2022/08/21 04:35:16;;;;;;;17.60;14.43;;;;;;;;;;5083836;28;20048;-82
2022/08/21 04:37:43;;;;;;;17.95;14.77;;;;;;;;;;5082874;28;20093;-83
2022/08/21 04:40:11;;;;;;;16.70;14.38;;;;;;;;;;5079461;28;20059;-82
2022/08/21 04:42:46;;;;;;;17.33;14.32;;;;;;;;;;5075961;28;20040;-82
2022/08/21 04:45:19;;;;;;;16.08;14.38;;;;;;;;;;5075857;28;20486;-82
2022/08/21 04:47:48;;;;;;;23.48;15.75;;;;;;;;;;5075875;28;20098;-82
2022/08/21 04:50:19;;;;;;;15.10;13.57;;;;;;;;;;5076138;28;20044;-81
2022/08/21 04:52:47;;;;;;;15.70;13.70;;;;;;;;;;5075721;28;20079;-82
2022/08/21 04:55:14;;;;;;;16.48;14.55;;;;;;;;;;5075836;28;20044;-82
2022/08/21 04:57:42;;;;;;;14.80;13.38;;;;;;;;;;5075920;28;20072;-81
2022/08/21 05:00:15;;;;;;;17.00;14.20;;;;;;;;;;5093879;28;20050;-82
2022/08/21 05:02:42;;;;;;;15.88;14.13;;;;;;;;;;5075468;28;20109;-81
2022/08/21 05:05:09;;;;;;;16.77;14.13;;;;;;;;;;5075162;28;20051;-82
2022/08/21 05:07:37;;;;;;;17.33;14.50;;;;;;;;;;5080794;28;20149;-83
2022/08/21 05:10:09;;;;;;;18.55;14.38;;;;;;;;;;5077762;28;20080;-82
2022/08/21 05:12:39;;;;;;;15.27;13.75;;;;;;;;;;5094872;28;20059;-82
2022/08/21 05:15:06;;;;;;;16.00;14.05;;;;;;;;;;5094617;28;20044;-82
2022/08/21 05:17:39;;;;;;;15.63;13.73;;;;;;;;;;5081684;28;20048;-82
2022/08/21 05:20:06;;;;;;;15.10;13.60;;;;;;;;;;5080225;28;20072;-83
2022/08/21 05:22:33;;;;;;;14.75;13.15;;;;;;;;;;5076468;28;20070;-82
2022/08/21 05:25:00;;;;;;;17.88;14.90;;;;;;;;;;5093717;28;20055;-81
2022/08/21 05:27:29;;;;;;;15.65;13.70;;;;;;;;;;5080365;22;20083;-82
2022/08/21 05:29:57;;;;;;;16.75;14.20;;;;;;;;;;5094949;28;20051;-82
2022/08/21 05:32:25;;;;;;;18.38;13.93;;;;;;;;;;5076522;28;20071;-82
2022/08/21 05:34:52;;;;;;;18.35;14.40;;;;;;;;;;5076768;28;20139;-82
2022/08/21 05:37:19;;;;;;;17.40;12.57;;;;;;;;;;5076441;28;20084;-82
2022/08/21 05:39:46;;;;;;;14.05;12.55;;;;;;;;;;5094328;28;20048;-82
2022/08/21 05:42:34;;;;;;;16.02;13.43;;;;;;;;;;5078470;28;20046;-82
2022/08/21 05:45:01;;;;;;;15.05;13.45;;;;;;;;;;5075598;28;20110;-82
2022/08/21 05:47:28;;;;;;;16.13;13.90;;;;;;;;;;5076636;28;20074;-82
2022/08/21 05:49:55;;;;;;;14.57;13.07;;;;;;;;;;5093868;28;20044;-82
2022/08/21 05:52:22;;;;;;;14.65;12.77;;;;;;;;;;5093382;28;20487;-82
2022/08/21 05:54:50;;;;;;;14.50;12.48;;;;;;;;;;5093371;28;20201;-82
2022/08/21 05:57:17;;;;;;;16.75;13.45;;;;;;;;;;5093115;28;20055;-82
2022/08/21 05:59:44;;;;;;;14.90;12.80;;;;;;;;;;5094068;28;20059;-82
2022/08/21 06:02:12;;;;;;;18.95;11.80;;;;;;;;;;5075862;28;20087;-82
2022/08/21 06:04:39;;;;;;;14.35;12.80;;;;;;;;;;5077429;28;20052;-82
2022/08/21 06:07:08;;;;;;;14.07;12.55;;;;;;;;;;5078719;28;20087;-83
2022/08/21 06:09:35;;;;;;;13.85;11.77;;;;;;;;;;5078934;28;20079;-82
2022/08/21 06:12:10;;;;;;;13.02;11.77;;;;;;;;;;5097718;28;20052;-82
2022/08/21 06:14:39;;;;;;;12.15;11.05;;;;;;;;;;5079102;28;20093;-82
2022/08/21 06:17:10;;;;;;;12.02;10.93;;;;;;;;;;5078614;28;20048;-81
2022/08/21 06:19:38;;;;;;;12.68;11.50;;;;;;;;;;5078730;28;20079;-82
2022/08/21 06:22:05;;;;;;;11.75;10.65;;;;;;;;;;5096424;28;20048;-82
2022/08/21 06:24:32;;;;;;;10.57;9.60;;;;;;;;;;5078679;28;20055;-82
2022/08/21 06:27:04;;;;;;;10.27;9.27;;;;;;;;;;5078666;28;20076;-82
2022/08/21 06:29:34;;;;;;;8.85;7.95;;;;;;;;;;5078587;28;20048;-82
2022/08/21 06:32:11;;;;;;;8.27;7.00;;;;;;;;;;5080104;28;20138;-81
2022/08/21 06:34:39;;;;;;;7.10;6.60;;;;;;;;;;5096556;28;20502;-82
2022/08/21 06:37:06;;;;;;;9.60;8.73;;;;;;;;;;5078617;28;20048;-82
2022/08/21 06:39:34;;;;;;;7.82;7.13;;;;;;;;;;5079040;28;20075;-82
2022/08/21 06:42:01;;;;;;;7.63;6.93;;;;;;;;;;5102037;28;20126;-82
2022/08/21 06:44:30;;;;;;;7.53;6.93;;;;;;;;;;5083751;28;20054;-82
2022/08/21 06:46:57;;;;;;;8.75;7.85;;;;;;;;;;5101638;28;20044;-82
2022/08/21 06:49:24;;;;;;;7.13;6.63;;;;;;;;;;5082615;28;20048;-82
2022/08/21 06:51:52;;;;;;;6.68;6.18;;;;;;;;;;5100251;28;20044;-82
2022/08/21 06:54:19;;;;;;;6.07;5.57;;;;;;;;;;5081945;28;20056;-82
2022/08/21 06:56:46;;;;;;;7.15;6.28;;;;;;;;;;5082839;28;20052;-81
2022/08/21 06:59:14;;;;;;;7.30;6.60;;;;;;;;;;5100627;28;20571;-80
2022/08/21 07:01:41;;;;;;;6.78;5.95;;;;;;;;;;5081838;28;20097;-80
2022/08/21 07:04:08;;;;;;;7.88;6.72;;;;;;;;;;5082265;28;20111;-81
2022/08/21 07:06:35;;;;;;;9.02;6.25;;;;;;;;;;5101542;28;20040;-81
2022/08/21 07:09:03;;;;;;;5.22;4.93;;;;;;;;;;5100960;28;20044;-79
2022/08/21 07:11:30;;;;;;;7.93;7.03;;;;;;;;;;5101139;28;20465;-80
2022/08/21 07:14:05;;;;;;;8.30;6.28;;;;;;;;;;5107685;28;20048;-81
2022/08/21 07:16:32;;;;;;;7.97;6.50;;;;;;;;;;5103338;28;20101;-81
2022/08/21 07:18:59;;;;;;;14.15;7.60;;;;;;;;;;5103651;28;20047;-82
2022/08/21 07:21:26;;;;;;;17.65;8.00;;;;;;;;;;5085202;28;20048;-82
2022/08/21 07:23:53;;;;;;;16.73;9.07;;;;;;;;;;5085101;28;20416;-82
2022/08/21 07:26:22;;;;;;;18.95;9.48;;;;;;;;;;5083326;28;20526;-81
2022/08/21 07:28:49;;;;;;;15.60;9.52;;;;;;;;;;5096038;28;20036;-82
2022/08/21 07:31:18;;;;;;;21.65;10.38;;;;;;;;;;5072574;28;20055;-82
2022/08/21 07:33:45;;;;;;;20.48;10.00;;;;;;;;;;5070820;28;20047;-83
2022/08/21 07:36:13;;;;;;;16.42;10.32;;;;;;;;;;5071902;28;20077;-82
2022/08/21 07:38:40;;;;;;;16.65;11.77;;;;;;;;;;5080046;28;20078;-82
2022/08/21 07:41:13;;;;;;;16.77;11.40;;;;;;;;;;5080620;28;20048;-82
2022/08/21 07:43:40;;;;;;;14.07;10.10;;;;;;;;;;5070360;28;20041;-83
2022/08/21 07:46:12;;;;;;;13.00;10.80;;;;;;;;;;5089655;28;20422;-82
2022/08/21 07:48:40;;;;;;;11.90;10.23;;;;;;;;;;5071566;28;20547;-83
2022/08/21 07:51:08;;;;;;;12.73;11.32;;;;;;;;;;5088297;28;20048;-82
2022/08/21 07:53:36;;;;;;;12.07;11.07;;;;;;;;;;5071897;28;20048;-83
2022/08/21 07:56:07;;;;;;;12.40;11.27;;;;;;;;;;5070670;28;20212;-82
2022/08/21 07:58:35;;;;;;;11.98;10.77;;;;;;;;;;5070165;28;20088;-83
2022/08/21 08:01:02;;;;;;;9.00;8.27;;;;;;;;;;5079500;28;20044;-82
2022/08/21 08:03:29;;;;;;;12.48;9.30;;;;;;;;;;5078868;28;20066;-83
2022/08/21 08:05:57;;;;;;;9.48;8.68;;;;;;;;;;5076514;28;20071;-83
2022/08/21 08:08:24;;;;;;;10.07;9.10;;;;;;;;;;5077693;28;20048;-83
2022/08/21 08:10:53;;;;;;;9.98;8.23;;;;;;;;;;5077791;28;20044;-81
2022/08/21 08:13:20;;;;;;;9.20;8.40;;;;;;;;;;5076705;28;20052;-82
2022/08/21 08:15:47;;;;;;;9.20;8.38;;;;;;;;;;5076507;28;20114;-83
2022/08/21 08:18:15;;;;;;;10.25;9.27;;;;;;;;;;5076996;28;20051;-82
2022/08/21 08:20:42;;;;;;;12.90;9.50;;;;;;;;;;5076694;28;20048;-83
2022/08/21 08:23:13;;;;;;;8.77;7.97;;;;;;;;;;5078282;28;20048;-82
2022/08/21 08:25:40;;;;;;;8.60;7.85;;;;;;;;;;5080418;28;20052;-82
2022/08/21 08:28:08;;;;;;;8.75;7.93;;;;;;;;;;5077629;28;20048;-82
2022/08/21 08:30:44;;;;;;;9.00;8.20;;;;;;;;;;5077730;28;20127;-82
2022/08/21 08:33:12;;;;;;;10.63;9.65;;;;;;;;;;5076989;28;20449;-81
2022/08/21 08:35:40;;;;;;;9.63;8.68;;;;;;;;;;5079491;28;20098;-82
2022/08/21 08:38:08;;;;;;;10.70;9.73;;;;;;;;;;5080245;28;20139;-82
2022/08/21 08:40:40;;;;;;;8.45;7.75;;;;;;;;;;5081416;28;20049;-82
2022/08/21 08:43:09;;;;;;;;;;;;;;;;;;5081785;28;20053;-82
2022/08/21 08:45:38;;;;;;;8.38;7.63;;;;;;;;;;5085175;28;19920;-82
2022/08/21 08:48:07;;;;;;;9.35;8.45;;;;;;;;;;5081926;28;20109;-82
2022/08/21 08:50:54;;;;;;;9.02;8.30;;;;;;;;;;5079930;28;20076;-82
2022/08/21 08:53:28;;;;;;;7.53;6.82;;;;;;;;;;5080260;28;20041;-82
2022/08/21 08:55:56;;;;;;;7.95;7.25;;;;;;;;;;5078270;28;20419;-83
2022/08/21 08:58:24;;;;;;;6.65;6.05;;;;;;;;;;5078213;28;20059;-82
2022/08/21 09:00:53;;;;;;;6.15;5.65;;;;;;;;;;5078186;28;20056;-83
2022/08/21 09:03:21;;;;;;;5.88;5.22;;;;;;;;;;5076684;28;20073;-83
2022/08/21 09:05:54;;;;;;;6.80;6.20;;;;;;;;;;5077668;28;20469;-84
2022/08/21 09:08:38;;;;;;;5.35;4.85;;;;;;;;;;5076295;28;20388;-83
2022/08/21 09:11:10;;;;;;;5.95;5.35;;;;;;;;;;5076320;28;20056;-82
2022/08/21 09:13:43;;;;;;;4.45;4.15;;;;;;;;;;5077484;28;20040;-83
2022/08/21 09:16:10;;;;;;;;;;;;;;;;;;5079284;28;20049;-83
2022/08/21 09:18:56;;;;;;;5.15;4.75;;;;;;;;;;5077087;28;20295;-82
2022/08/21 09:21:29;;;;;;;4.20;3.80;;;;;;;;;;5078531;28;20052;-82
2022/08/21 09:24:17;;;;;;;5.00;4.70;;;;;;;;;;5075735;28;20588;-82
2022/08/21 09:26:57;;;;;;;5.10;4.70;;;;;;;;;;5076601;28;20044;-82
2022/08/21 09:29:29;;;;;;;5.80;4.80;;;;;;;;;;5076806;28;20459;-82
2022/08/21 09:31:56;;;;;;;5.65;4.20;;;;;;;;;;5075376;28;20573;-81
2022/08/21 09:34:28;;;;;;;5.43;4.97;;;;;;;;;;5077425;28;20045;-82
2022/08/21 09:36:56;;;;;;;5.10;4.35;;;;;;;;;;5077012;28;20075;-81
2022/08/21 09:39:28;;;;;;;5.05;4.55;;;;;;;;;;5080638;28;20080;-82
2022/08/21 09:41:59;;;;;;;5.60;4.53;;;;;;;;;;5082157;28;20075;-82
2022/08/21 09:44:31;;;;;;;4.05;3.83;;;;;;;;;;5080674;28;20499;-82
2022/08/21 09:46:59;;;;;;;4.10;3.80;;;;;;;;;;5081470;28;20052;-81
2022/08/21 09:49:34;;;;;;;3.90;3.65;;;;;;;;;;5081639;28;20105;-82
2022/08/21 09:52:02;;;;;;;3.97;3.67;;;;;;;;;;5080688;28;20079;-81
2022/08/21 09:54:34;;;;;;;4.10;3.70;;;;;;;;;;5081537;28;20048;-82
2022/08/21 10:00:08;;;;;;;3.53;3.22;;;;;;;;;;5082809;28;20076;-82
2022/08/21 10:02:36;;;;;;;3.30;3.10;;;;;;;;;;5081967;28;20048;-81
2022/08/21 10:05:16;;;;;;;4.45;4.05;;;;;;;;;;5078699;28;20075;-81
2022/08/21 10:07:44;;;;;;;4.00;3.60;;;;;;;;;;5080259;28;20146;-82
2022/08/21 10:10:17;;;;;;;17.73;3.58;;;;;;;;;;5081118;28;20117;-82
2022/08/21 10:12:53;;;;;;;3.05;2.60;;;;;;;;;;5081505;28;20048;-83
2022/08/21 10:15:23;;;;;;;2.72;2.53;;;;;;;;;;5082053;28;20529;-82
2022/08/21 10:17:53;;;;;;;3.30;3.10;;;;;;;;;;5083676;28;20105;-82
2022/08/21 10:20:37;;;;;;;2.92;2.75;;;;;;;;;;5084163;28;20052;-83
2022/08/21 10:23:13;;;;;;;3.63;3.33;;;;;;;;;;5083143;28;20051;-81
2022/08/21 10:25:51;;;;;;;3.20;3.00;;;;;;;;;;5082349;28;20052;-80
2022/08/21 10:28:48;;;;;;;3.55;3.25;;;;;;;;;;5083435;28;20476;-83
2022/08/21 10:31:23;;;;;;;3.55;3.25;;;;;;;;;;5086747;28;20049;-81
2022/08/21 10:34:06;;;;;;;2.75;2.55;;;;;;;;;;5087701;28;20044;-81
2022/08/21 10:36:35;;;;;;;3.25;2.95;;;;;;;;;;5086268;28;20102;-82
2022/08/21 10:39:14;;;;;;;3.10;2.50;;;;;;;;;;5082691;28;20041;-82
2022/08/21 10:42:12;;;;;;;4.00;3.70;;;;;;;;;;5080146;28;20131;-82
2022/08/21 10:44:47;;;;;;;3.03;2.78;;;;;;;;;;5078997;28;20067;-82
2022/08/21 10:47:14;;;;;;;26.25;4.32;;;;;;;;;;5078546;28;20051;-82
2022/08/21 10:49:42;;;;;;;4.57;2.20;;;;;;;;;;5078416;28;20049;-82
2022/08/21 10:52:21;;;;;;;2.40;2.30;;;;;;;;;;5078951;28;20088;-82
2022/08/21 10:55:03;;;;;;;4.35;2.97;;;;;;;;;;5080241;28;20067;-81
2022/08/21 10:57:36;;;;;;;5.72;2.90;;;;;;;;;;5077732;28;20048;-80
2022/08/21 11:00:10;;;;;;;3.47;3.17;;;;;;;;;;5078448;28;20510;-81
2022/08/21 11:02:41;;;;;;;3.42;2.38;;;;;;;;;;5076445;28;20262;-82
2022/08/21 11:05:20;;;;;;;4.38;2.88;;;;;;;;;;5093626;28;20122;-81
2022/08/21 11:07:50;;;;;;;3.67;2.90;;;;;;;;;;5088420;28;20040;-82
2022/08/21 11:10:23;;;;;;;3.47;2.60;;;;;;;;;;5080124;28;20616;-82
2022/08/21 11:13:02;;;;;;;5.05;2.60;;;;;;;;;;5079191;28;20040;-81
2022/08/21 11:15:30;;;;;;;4.65;2.30;;;;;;;;;;5081059;28;20477;-81
2022/08/21 11:18:06;;;;;;;9.07;2.83;;;;;;;;;;5081517;28;20088;-81
2022/08/21 11:20:45;;;;;;;3.35;2.58;;;;;;;;;;5079284;28;20079;-82
2022/08/21 11:23:19;;;;;;;2.75;2.55;;;;;;;;;;5081135;28;20091;-83
2022/08/21 11:25:50;;;;;;;2.50;2.30;;;;;;;;;;5081396;28;20049;-81
2022/08/21 11:28:24;;;;;;;3.72;2.47;;;;;;;;;;5100497;22;20083;-82
2022/08/21 11:31:05;;;;;;;2.50;2.30;;;;;;;;;;5062790;28;20498;-82
2022/08/21 11:33:32;;;;;;;8.98;2.58;;;;;;;;;;5080190;28;20072;-83
2022/08/21 11:36:04;;;;;;;6.97;2.78;;;;;;;;;;5079684;28;20098;-82
2022/08/21 11:38:38;;;;;;;3.05;2.70;;;;;;;;;;5061738;28;20060;-81
2022/08/21 11:41:24;;;;;;;2.95;2.13;;;;;;;;;;5062501;28;20121;-81
2022/08/21 11:43:59;;;;;;;2.30;2.17;;;;;;;;;;5061657;28;20044;-83
2022/08/21 11:46:29;;;;;;;3.05;2.30;;;;;;;;;;5079729;28;20045;-81
2022/08/21 11:49:12;;;;;;;3.35;2.15;;;;;;;;;;5060051;28;20053;-82
2022/08/21 11:51:41;;;;;;;2.88;2.35;;;;;;;;;;5079948;28;20491;-82
2022/08/21 11:54:12;;;;;;;2.20;2.10;;;;;;;;;;5059793;28;20098;-82
2022/08/21 11:56:46;;;;;;;3.65;2.47;;;;;;;;;;5061216;28;20044;-82
2022/08/21 11:59:22;;;;;;;2.60;2.40;;;;;;;;;;5059792;28;20162;-81
2022/08/21 12:01:52;;;;;;;2.60;2.40;;;;;;;;;;5077437;28;20052;-82
2022/08/21 12:04:24;;;;;;;3.10;2.72;;;;;;;;;;5076998;28;20045;-82
2022/08/21 12:06:52;;;;;;;2.72;2.53;;;;;;;;;;5059920;28;20048;-81
2022/08/21 12:09:25;;;;;;;4.47;2.92;;;;;;;;;;5075111;28;20457;-81
2022/08/21 12:12:06;;;;;;;3.03;2.83;;;;;;;;;;5078014;28;20056;-82
2022/08/21 12:14:41;;;;;;;7.20;2.72;;;;;;;;;;5058549;28;20056;-82
2022/08/21 12:17:09;;;;;;;3.53;2.88;;;;;;;;;;5059463;28;20041;-83
2022/08/21 12:19:38;;;;;;;3.20;2.90;;;;;;;;;;5058332;28;20051;-82
2022/08/21 12:22:06;;;;;;;4.38;2.83;;;;;;;;;;5060266;28;20075;-82
2022/08/21 12:24:38;;;;;;;3.40;2.97;;;;;;;;;;5060616;28;20079;-82
2022/08/21 12:27:14;;;;;;;3.05;2.85;;;;;;;;;;5059270;28;20044;-82
2022/08/21 12:29:46;;;;;;;5.85;3.45;;;;;;;;;;5056989;28;20044;-82
2022/08/21 12:32:13;;;;;;;3.03;2.83;;;;;;;;;;5075256;28;20087;-82
2022/08/21 12:34:40;;;;;;;4.28;3.03;;;;;;;;;;5057928;28;20048;-82
2022/08/21 12:37:15;;;;;;;8.13;3.50;;;;;;;;;;5077859;28;20091;-82
2022/08/21 12:39:45;;;;;;;5.95;3.30;;;;;;;;;;5077973;28;20075;-83
2022/08/21 12:42:16;;;;;;;3.38;2.90;;;;;;;;;;5060847;28;20392;-82
2022/08/21 12:44:46;;;;;;;7.90;3.38;;;;;;;;;;5077385;28;20051;-82
2022/08/21 12:47:22;;;;;;;6.40;3.33;;;;;;;;;;5075363;28;20403;-82
2022/08/21 12:49:53;;;;;;;5.00;2.95;;;;;;;;;;5060836;28;20418;-82
2022/08/21 12:52:25;;;;;;;3.00;2.70;;;;;;;;;;5060889;28;20048;-82
2022/08/21 12:54:52;;;;;;;5.45;2.67;;;;;;;;;;5058472;28;20044;-81
2022/08/21 12:57:24;;;;;;;2.90;2.60;;;;;;;;;;5057953;28;20415;-82
2022/08/21 12:59:55;;;;;;;4.60;3.00;;;;;;;;;;5058905;28;20099;-81
2022/08/21 13:02:25;;;;;;;4.80;2.80;;;;;;;;;;5059194;28;20051;-81
2022/08/21 13:04:54;;;;;;;2.78;2.40;;;;;;;;;;5058408;28;20048;-82
2022/08/21 13:07:27;;;;;;;8.70;3.00;;;;;;;;;;5075621;28;20044;-82
2022/08/21 13:10:14;;;;;;;2.28;2.17;;;;;;;;;;5058599;28;20079;-82
2022/08/21 13:12:42;;;;;;;3.03;2.30;;;;;;;;;;5057566;28;20135;-82
2022/08/21 13:15:09;;;;;;;3.05;2.70;;;;;;;;;;5079738;28;20099;-83
2022/08/21 13:17:39;;;;;;;2.83;2.63;;;;;;;;;;5059549;28;21794;-82
2022/08/21 13:20:10;;;;;;;2.75;2.65;;;;;;;;;;5057169;28;20432;-82
2022/08/21 13:22:43;;;;;;;2.78;2.58;;;;;;;;;;5058030;28;20064;-82
2022/08/21 13:25:12;;;;;;;5.03;2.60;;;;;;;;;;5057959;28;20052;-82
2022/08/21 13:27:39;;;;;;;3.88;2.38;;;;;;;;;;5075420;28;20040;-82
2022/08/21 13:30:09;;;;;;;4.03;2.50;;;;;;;;;;5074126;28;20044;-82
2022/08/21 13:32:40;;;;;;;2.92;2.53;;;;;;;;;;5073897;28;20049;-81
2022/08/21 13:35:09;;;;;;;2.63;2.42;;;;;;;;;;5058364;28;20066;-82
2022/08/21 13:37:39;;;;;;;2.58;2.42;;;;;;;;;;5056988;28;20060;-82
2022/08/21 13:40:07;;;;;;;2.58;2.40;;;;;;;;;;5076137;28;20106;-82
2022/08/21 13:42:35;;;;;;;5.15;2.47;;;;;;;;;;5059721;28;20049;-81
2022/08/21 13:45:02;;;;;;;2.58;2.35;;;;;;;;;;5071908;28;20442;-82
2022/08/21 13:47:29;;;;;;;2.60;2.40;;;;;;;;;;5074004;28;20530;-82
2022/08/21 13:49:57;;;;;;;2.35;2.17;;;;;;;;;;5058508;28;20114;-82
2022/08/21 13:52:27;;;;;;;3.42;2.53;;;;;;;;;;5056304;28;20495;-81
2022/08/21 13:54:56;;;;;;;2.78;2.13;;;;;;;;;;5056957;28;20507;-82
2022/08/21 13:57:31;;;;;;;2.42;2.22;;;;;;;;;;5056878;28;20411;-82
2022/08/21 14:00:11;;;;;;;2.80;2.60;;;;;;;;;;5057761;28;20419;-82
2022/08/21 14:02:40;;;;;;;3.33;2.22;;;;;;;;;;5059005;28;20523;-83
2022/08/21 14:05:08;;;;;;;4.85;2.22;;;;;;;;;;5058842;28;20056;-82
2022/08/21 14:07:37;;;;;;;2.92;2.40;;;;;;;;;;5059498;28;20049;-83
2022/08/21 14:10:13;;;;;;;2.70;2.50;;;;;;;;;;5077501;28;20440;-83
2022/08/21 14:12:49;;;;;;;2.33;2.17;;;;;;;;;;5077764;28;20044;-82
2022/08/21 14:15:18;;;;;;;4.43;1.92;;;;;;;;;;5078487;28;20055;-82
2022/08/21 14:17:46;;;;;;;3.00;2.05;;;;;;;;;;5075653;28;20052;-82
2022/08/21 14:20:32;;;;;;;2.60;2.40;;;;;;;;;;5074408;28;20045;-82
2022/08/21 14:22:59;;;;;;;5.10;2.35;;;;;;;;;;5057981;28;20044;-82
2022/08/21 14:25:32;;;;;;;2.65;2.30;;;;;;;;;;5077578;28;20072;-82
2022/08/21 14:28:02;;;;;;;2.20;2.10;;;;;;;;;;5081194;28;20061;-82
2022/08/21 14:30:37;;;;;;;3.25;2.08;;;;;;;;;;5061075;28;20527;-82
2022/08/21 14:33:10;;;;;;;4.43;2.15;;;;;;;;;;5061843;28;20103;-82
2022/08/21 14:35:37;;;;;;;2.67;2.35;;;;;;;;;;5077954;28;20117;-82
2022/08/21 14:38:12;;;;;;;4.00;2.30;;;;;;;;;;5060839;28;20491;-82
2022/08/21 14:40:40;;;;;;;2.25;2.05;;;;;;;;;;5059650;28;20106;-82
2022/08/21 14:43:08;;;;;;;6.20;2.40;;;;;;;;;;5060753;28;20465;-81
2022/08/21 14:45:36;;;;;;;7.70;2.60;;;;;;;;;;5060993;28;20110;-81
2022/08/21 14:48:04;;;;;;;2.92;2.20;;;;;;;;;;5076658;28;20507;-82
2022/08/21 14:50:31;;;;;;;7.35;3.88;;;;;;;;;;5077803;28;20102;-82
2022/08/21 14:52:58;;;;;;;4.22;2.30;;;;;;;;;;5059008;28;20044;-82